Thunder radar more information blitzortung!


Radar de pluja more information rain snow radar


Visita la nostra xarxa de llocs de meteo:

Template documentation
and downloads

And another site



No particular awareness of the weather is required.    There are no Weather-warnings

Pagina Historial Weather Underground text

Diari Resum Novembre 26, 2017 Unitats:  Mètric    Imperial   Tant
« Previous Dia
SegĂźent Dia »
Diari Setmana Mensual Anual Personalitzada
  Maxima: Minima: Media:
Temperatura: 14.3 °C 3.8 °C 8.6 °C
Punt de rosada: 3.4 °C -5.9 °C -2.2 °C
Humitat: 55 % 38 % 47 %
Wind Speed: 16.7 km/h 0.0 km/h 3.7 km/h
RĂ fegues de vent: 16.7 km/h - -
Vent:- - South
Pression baro: 1030.0 hPa 1022.9 hPa -
Precipitacions: 0.0 mm    
Historical Graphs
 
 
Dades de taula per Novembre 26, 2017
Temps Temperatura Punt de rosada Pression baro Vent Wind Speed RĂ fegues de vent Humitat Rainfall Rate (Hourly)
00:01 8.4 °C -1.4 °C 1023.9 hPa WSW 3.9 km/h 3.9 km/h 50 % 0.0 mm
00:05 5.2 °C -3.9 °C 1026.0 hPa Calm   3.2 km/h 52 % 0.0 mm
00:06 8.3 °C -1.6 °C 1023.9 hPa SW 1.9 km/h   50 % 0.0 mm
00:11 8.1 °C -1.7 °C 1023.9 hPa Calm     50 % 0.0 mm
00:15 4.9 °C -4.2 °C 1026.0 hPa East 1.6 km/h 3.2 km/h 52 % 0.0 mm
00:16 8.0 °C -1.8 °C 1022.9 hPa Calm     50 % 0.0 mm
00:25 4.8 °C -4.2 °C 1026.0 hPa Calm   3.2 km/h 52 % 0.0 mm
00:35 4.7 °C -4.1 °C 1026.0 hPa SW 1.6 km/h 3.2 km/h 53 % 0.0 mm
00:45 4.6 °C -4.2 °C 1026.0 hPa WSW 1.6 km/h 3.2 km/h 53 % 0.0 mm
00:55 4.6 °C -4.2 °C 1026.0 hPa West 1.6 km/h 3.2 km/h 53 % 0.0 mm
01:05 4.5 °C -4.3 °C 1026.0 hPa West 1.6 km/h   53 % 0.0 mm
01:15 4.3 °C -4.2 °C 1026.0 hPa Calm   1.6 km/h 54 % 0.0 mm
01:25 4.3 °C -4.2 °C 1026.0 hPa NNE 3.2 km/h 4.8 km/h 54 % 0.0 mm
01:35 4.4 °C -4.1 °C 1026.0 hPa NE 3.2 km/h 6.4 km/h 54 % 0.0 mm
01:45 4.4 °C -4.1 °C 1026.0 hPa NNE 3.2 km/h 3.2 km/h 54 % 0.0 mm
01:55 4.5 °C -4.0 °C 1026.0 hPa NNW 3.2 km/h 6.4 km/h 54 % 0.0 mm
02:05 4.7 °C -3.8 °C 1027.0 hPa NNE 8.0 km/h 8.0 km/h 54 % 0.0 mm
02:15 4.7 °C -3.6 °C 1027.0 hPa NE 3.2 km/h 8.0 km/h 55 % 0.0 mm
02:25 4.7 °C -3.6 °C 1027.0 hPa North 3.2 km/h 4.8 km/h 55 % 0.0 mm
02:35 4.7 °C -3.6 °C 1027.0 hPa NNW 3.2 km/h 4.8 km/h 55 % 0.0 mm
02:45 4.9 °C -3.4 °C 1027.0 hPa NNE 1.6 km/h 4.8 km/h 55 % 0.0 mm
02:55 5.0 °C -3.3 °C 1028.0 hPa NNE 1.6 km/h 3.2 km/h 55 % 0.0 mm
03:05 5.2 °C -3.1 °C 1028.0 hPa North 3.2 km/h 3.2 km/h 55 % 0.0 mm
03:15 5.4 °C -2.9 °C 1028.0 hPa North 1.6 km/h 4.8 km/h 55 % 0.0 mm
03:25 5.5 °C -2.8 °C 1028.0 hPa NNE 1.6 km/h 6.4 km/h 55 % 0.0 mm
03:35 5.9 °C -2.4 °C 1028.0 hPa Calm   4.8 km/h 55 % 0.0 mm
03:45 6.2 °C -2.2 °C 1028.0 hPa Calm   3.2 km/h 55 % 0.0 mm
03:55 6.9 °C -1.6 °C 1028.0 hPa NNW 1.6 km/h 3.2 km/h 55 % 0.0 mm
04:05 7.4 °C -1.3 °C 1028.0 hPa North 1.6 km/h 3.2 km/h 54 % 0.0 mm
04:15 8.2 °C -0.6 °C 1028.0 hPa NNW 1.6 km/h 3.2 km/h 54 % 0.0 mm
04:25 8.3 °C -0.7 °C 1028.0 hPa WSW 1.6 km/h 4.8 km/h 53 % 0.0 mm
04:35 8.5 °C -0.6 °C 1028.0 hPa SW 1.6 km/h 3.2 km/h 53 % 0.0 mm
04:45 8.5 °C -0.8 °C 1028.0 hPa SSW 3.2 km/h 4.8 km/h 52 % 0.0 mm
04:55 8.6 °C -0.7 °C 1029.0 hPa East 3.2 km/h 4.8 km/h 52 % 0.0 mm
05:05 9.0 °C -0.3 °C 1029.0 hPa ENE 1.6 km/h 6.4 km/h 52 % 0.0 mm
05:15 9.2 °C -0.2 °C 1029.0 hPa NE 1.6 km/h 4.8 km/h 52 % 0.0 mm
05:25 9.4 °C 0.0 °C 1030.0 hPa NE 4.8 km/h 4.8 km/h 52 % 0.0 mm
05:35 9.2 °C -0.4 °C 1029.0 hPa NE 3.2 km/h 4.8 km/h 51 % 0.0 mm
05:45 9.9 °C 0.2 °C 1029.0 hPa ENE 1.6 km/h 3.2 km/h 51 % 0.0 mm
11:45 9.7 °C 0.1 °C 1030.0 hPa East 3.9 km/h 3.9 km/h 51 % 0.0 mm
11:50 10.2 °C 0.8 °C 1030.0 hPa ESE 3.9 km/h 3.9 km/h 52 % 0.0 mm
11:55 10.2 °C 0.5 °C 1030.0 hPa SE 3.9 km/h 3.9 km/h 51 % 0.0 mm
12:00 10.4 °C 0.7 °C 1030.0 hPa East 3.7 km/h 3.7 km/h 51 % 0.0 mm
12:05 10.9 °C 1.2 °C 1030.0 hPa NW 3.5 km/h 3.5 km/h 51 % 0.0 mm
12:10 10.8 °C 1.1 °C 1030.0 hPa NNE 1.9 km/h 1.9 km/h 51 % 0.0 mm
12:15 10.6 °C 0.9 °C 1030.0 hPa East 5.8 km/h 5.8 km/h 51 % 0.0 mm
12:20 10.8 °C 1.1 °C 1030.0 hPa NNE 3.7 km/h 3.7 km/h 51 % 0.0 mm
12:25 11.0 °C 1.2 °C 1030.0 hPa East 3.7 km/h 3.7 km/h 51 % 0.0 mm
12:30 11.4 °C 1.6 °C 1029.0 hPa ENE 3.5 km/h 3.5 km/h 51 % 0.0 mm
12:40 11.4 °C 1.6 °C 1029.0 hPa East 5.6 km/h 5.6 km/h 51 % 0.0 mm
12:45 11.4 °C 1.3 °C 1029.0 hPa ESE 5.6 km/h 5.6 km/h 50 % 0.0 mm
12:50 11.7 °C 1.9 °C 1029.0 hPa ESE 7.2 km/h 7.2 km/h 51 % 0.0 mm
12:55 11.6 °C 1.5 °C 1029.0 hPa ESE 5.6 km/h 5.6 km/h 50 % 0.0 mm
13:00 11.7 °C 1.6 °C 1028.0 hPa ENE 5.6 km/h 5.6 km/h 50 % 0.0 mm
13:05 12.0 °C 1.9 °C 1028.0 hPa East 5.6 km/h 5.6 km/h 50 % 0.0 mm
13:10 12.3 °C 2.4 °C 1028.0 hPa ESE 4.2 km/h 4.2 km/h 51 % 0.0 mm
13:15 12.7 °C 2.6 °C 1028.0 hPa South 3.9 km/h 3.9 km/h 50 % 0.0 mm
13:20 13.2 °C 3.3 °C 1028.0 hPa WSW 7.4 km/h 7.4 km/h 51 % 0.0 mm
13:25 13.4 °C 3.4 °C 1028.0 hPa SSE 3.7 km/h 3.7 km/h 51 % 0.0 mm
13:30 13.3 °C 3.4 °C 1028.0 hPa ENE 4.2 km/h 4.2 km/h 51 % 0.0 mm
13:35 13.2 °C 3.0 °C 1028.0 hPa SW 5.6 km/h 5.6 km/h 50 % 0.0 mm
13:40 13.2 °C 3.3 °C 1028.0 hPa SSW 7.4 km/h 7.4 km/h 51 % 0.0 mm
13:45 13.2 °C 3.0 °C 1027.0 hPa SSE 3.7 km/h 3.7 km/h 50 % 0.0 mm
13:50 13.3 °C 3.1 °C 1027.0 hPa SW 7.4 km/h 7.4 km/h 50 % 0.0 mm
13:55 13.3 °C 2.8 °C 1027.0 hPa South 9.3 km/h 9.3 km/h 49 % 0.0 mm
14:00 13.5 °C 3.0 °C 1027.0 hPa WSW 9.3 km/h 9.3 km/h 49 % 0.0 mm
14:05 13.6 °C 2.8 °C 1027.0 hPa SW 13.0 km/h 13.0 km/h 48 % 0.0 mm
14:10 13.6 °C 2.2 °C 1027.0 hPa SSW 7.4 km/h 7.4 km/h 46 % 0.0 mm
14:15 13.5 °C 1.8 °C 1028.0 hPa WSW 7.4 km/h 7.4 km/h 45 % 0.0 mm
14:20 13.8 °C 2.1 °C 1028.0 hPa WNW 13.0 km/h 13.0 km/h 45 % 0.0 mm
14:21 13.9 °C 2.4 °C 1028.0 hPa WSW 7.4 km/h 7.4 km/h 46 % 0.0 mm
14:26 14.0 °C 2.2 °C 1028.0 hPa SSW 3.7 km/h 3.7 km/h 45 % 0.0 mm
14:31 14.1 °C 2.3 °C 1028.0 hPa West 5.6 km/h 5.6 km/h 45 % 0.0 mm
14:36 14.2 °C 2.1 °C 1028.0 hPa WNW 5.6 km/h 5.6 km/h 44 % 0.0 mm
14:41 14.2 °C 2.1 °C 1028.0 hPa SSW 7.4 km/h 7.4 km/h 44 % 0.0 mm
14:46 14.2 °C 1.8 °C 1028.0 hPa WNW 7.4 km/h 7.4 km/h 43 % 0.0 mm
14:51 13.7 °C 1.7 °C 1028.0 hPa ENE 5.0 km/h 5.0 km/h 44 % 0.0 mm
14:56 13.6 °C 1.9 °C 1028.0 hPa West 5.6 km/h 5.6 km/h 45 % 0.0 mm
15:01 13.6 °C 1.6 °C 1028.0 hPa WSW 3.9 km/h 3.9 km/h 44 % 0.0 mm
15:06 13.5 °C 1.4 °C 1028.0 hPa NNE 3.7 km/h 3.7 km/h 44 % 0.0 mm
15:11 13.8 °C 2.1 °C 1028.0 hPa NNW 3.7 km/h 3.7 km/h 45 % 0.0 mm
15:16 14.0 °C 1.9 °C 1027.0 hPa WSW 7.4 km/h 7.4 km/h 44 % 0.0 mm
15:21 14.3 °C 1.9 °C 1027.0 hPa SW 7.9 km/h 7.9 km/h 43 % 0.0 mm
15:26 14.1 °C 1.4 °C 1027.0 hPa West 9.3 km/h 9.3 km/h 42 % 0.0 mm
15:31 14.1 °C 1.1 °C 1028.0 hPa West 13.0 km/h 13.0 km/h 41 % 0.0 mm
15:36 13.8 °C 0.1 °C 1028.0 hPa WNW 11.1 km/h 11.1 km/h 39 % 0.0 mm
15:41 13.7 °C 0.0 °C 1028.0 hPa West 9.3 km/h 9.3 km/h 39 % 0.0 mm
15:46 13.8 °C 0.1 °C 1028.0 hPa SW 9.3 km/h 9.7 km/h 39 % 0.0 mm
15:51 13.6 °C -0.1 °C 1028.0 hPa West 13.0 km/h 13.0 km/h 39 % 0.0 mm
15:56 13.5 °C -0.6 °C 1028.0 hPa West 16.7 km/h 16.7 km/h 38 % 0.0 mm
16:01 13.5 °C -0.6 °C 1028.0 hPa SW 9.0 km/h 9.0 km/h 38 % 0.0 mm
16:06 13.4 °C -0.7 °C 1028.0 hPa WSW 9.3 km/h 9.3 km/h 38 % 0.0 mm
16:11 13.4 °C -0.7 °C 1028.0 hPa WNW 7.4 km/h 7.4 km/h 38 % 0.0 mm
16:16 13.3 °C -0.4 °C 1028.0 hPa WNW 7.4 km/h 7.4 km/h 39 % 0.0 mm
16:21 13.2 °C -0.4 °C 1028.0 hPa West 9.3 km/h 9.3 km/h 39 % 0.0 mm
16:26 13.2 °C -0.4 °C 1028.0 hPa WSW 3.7 km/h 3.9 km/h 39 % 0.0 mm
16:31 13.0 °C -0.7 °C 1029.0 hPa West 6.1 km/h 6.1 km/h 39 % 0.0 mm
16:36 12.9 °C -0.7 °C 1029.0 hPa WSW 5.6 km/h 5.6 km/h 39 % 0.0 mm
16:41 12.9 °C -0.7 °C 1029.0 hPa WSW 3.9 km/h 3.9 km/h 39 % 0.0 mm
16:46 12.8 °C -0.8 °C 1028.0 hPa West 3.7 km/h 3.7 km/h 39 % 0.0 mm
16:51 12.7 °C -0.9 °C 1028.0 hPa WSW 3.7 km/h 3.7 km/h 39 % 0.0 mm
16:56 12.5 °C -1.1 °C 1028.0 hPa WSW 7.4 km/h 7.4 km/h 39 % 0.0 mm
17:01 12.3 °C -1.3 °C 1028.0 hPa West 9.3 km/h 9.3 km/h 39 % 0.0 mm
17:06 12.2 °C -1.4 °C 1028.0 hPa SW 9.3 km/h 9.3 km/h 39 % 0.0 mm
17:11 11.8 °C -1.7 °C 1028.0 hPa WSW 5.6 km/h 5.6 km/h 39 % 0.0 mm
17:16 11.6 °C -1.9 °C 1029.0 hPa WSW 5.6 km/h 5.6 km/h 39 % 0.0 mm
17:21 11.3 °C -2.2 °C 1029.0 hPa SSW 6.1 km/h 6.1 km/h 39 % 0.0 mm
17:26 11.1 °C -2.3 °C 1029.0 hPa WSW 3.9 km/h 3.9 km/h 39 % 0.0 mm
17:31 11.0 °C -2.4 °C 1029.0 hPa WSW 1.9 km/h 1.9 km/h 39 % 0.0 mm
17:36 10.9 °C -2.6 °C 1029.0 hPa NW 3.7 km/h 3.7 km/h 39 % 0.0 mm
17:41 10.8 °C -2.6 °C 1029.0 hPa ENE 2.3 km/h 2.3 km/h 39 % 0.0 mm
17:46 10.7 °C -2.7 °C 1029.0 hPa WSW 3.7 km/h 3.7 km/h 39 % 0.0 mm
17:51 10.6 °C -2.8 °C 1029.0 hPa WSW 4.2 km/h 4.2 km/h 39 % 0.0 mm
17:56 10.6 °C -2.8 °C 1029.0 hPa WSW 5.6 km/h 5.6 km/h 39 % 0.0 mm
18:01 10.6 °C -2.8 °C 1029.0 hPa SW 1.9 km/h   39 % 0.0 mm
18:06 10.4 °C -3.0 °C 1029.0 hPa East 1.9 km/h 2.3 km/h 39 % 0.0 mm
18:11 10.3 °C -3.1 °C 1029.0 hPa ENE 2.6 km/h   39 % 0.0 mm
18:16 10.1 °C -3.3 °C 1030.0 hPa ENE 3.2 km/h 3.2 km/h 39 % 0.0 mm
18:21 10.0 °C -3.3 °C 1030.0 hPa NNE 3.7 km/h 3.7 km/h 39 % 0.0 mm
18:26 9.8 °C -3.5 °C 1030.0 hPa NNE 1.9 km/h   39 % 0.0 mm
18:31 9.6 °C -3.7 °C 1029.0 hPa Calm     39 % 0.0 mm
18:36 9.3 °C -3.9 °C 1029.0 hPa NE 1.9 km/h 1.9 km/h 39 % 0.0 mm
18:41 9.3 °C -3.6 °C 1029.0 hPa WNW 3.7 km/h 3.7 km/h 40 % 0.0 mm
18:45 4.0 °C -5.0 °C 1030.0 hPa SW 1.6 km/h 3.2 km/h 52 % 0.0 mm
18:46 9.4 °C -3.6 °C 1029.0 hPa West 1.9 km/h 1.9 km/h 40 % 0.0 mm
18:51 9.4 °C -3.6 °C 1029.0 hPa SW 3.7 km/h 3.7 km/h 40 % 0.0 mm
18:55 4.2 °C -4.8 °C 1029.0 hPa North 1.6 km/h 3.2 km/h 52 % 0.0 mm
18:56 9.4 °C -3.6 °C 1029.0 hPa West 3.7 km/h 3.7 km/h 40 % 0.0 mm
19:01 9.3 °C -3.6 °C 1029.0 hPa West 1.9 km/h   40 % 0.0 mm
19:05 4.2 °C -4.8 °C 1029.0 hPa NNW 1.6 km/h 1.6 km/h 52 % 0.0 mm
19:06 9.3 °C -3.6 °C 1029.0 hPa Calm     40 % 0.0 mm
19:11 9.2 °C -3.7 °C 1029.0 hPa West 2.3 km/h 2.3 km/h 40 % 0.0 mm
19:15 4.3 °C -4.4 °C 1029.0 hPa Calm   1.6 km/h 53 % 0.0 mm
19:16 9.2 °C -3.7 °C 1029.0 hPa West 3.2 km/h   40 % 0.0 mm
19:21 9.2 °C -3.7 °C 1029.0 hPa WSW 2.6 km/h 2.6 km/h 40 % 0.0 mm
19:25 3.9 °C -5.1 °C 1029.0 hPa West 3.2 km/h 4.8 km/h 52 % 0.0 mm
19:26 9.2 °C -3.7 °C 1029.0 hPa WNW 3.7 km/h 3.7 km/h 40 % 0.0 mm
19:31 9.3 °C -3.6 °C 1029.0 hPa WSW 1.9 km/h 1.9 km/h 40 % 0.0 mm
19:35 3.8 °C -4.9 °C 1029.0 hPa Calm   3.2 km/h 53 % 0.0 mm
19:36 9.3 °C -3.3 °C 1029.0 hPa WNW 1.9 km/h 1.9 km/h 41 % 0.0 mm
19:41 9.3 °C -3.3 °C 1029.0 hPa ENE 3.9 km/h 3.9 km/h 41 % 0.0 mm
19:45 4.1 °C -4.6 °C 1029.0 hPa Calm   3.2 km/h 53 % 0.0 mm
19:46 8.6 °C -3.9 °C 1029.0 hPa ENE 5.6 km/h 5.6 km/h 41 % 0.0 mm
19:51 8.5 °C -4.0 °C 1029.0 hPa ESE 1.9 km/h   41 % 0.0 mm
19:55 4.2 °C -4.6 °C 1029.0 hPa Calm     53 % 0.0 mm
19:56 8.3 °C -4.2 °C 1029.0 hPa Calm     41 % 0.0 mm
20:01 8.2 °C -4.3 °C 1029.0 hPa WNW 3.7 km/h 3.7 km/h 41 % 0.0 mm
20:05 4.3 °C -4.4 °C 1029.0 hPa Calm   1.6 km/h 53 % 0.0 mm
20:06 8.2 °C -4.3 °C 1029.0 hPa WNW 2.3 km/h 2.3 km/h 41 % 0.0 mm
20:11 8.1 °C -4.4 °C 1029.0 hPa WNW 4.2 km/h 4.2 km/h 41 % 0.0 mm
20:15 4.4 °C -4.1 °C 1029.0 hPa NNE 3.2 km/h 3.2 km/h 54 % 0.0 mm
20:16 8.0 °C -4.5 °C 1028.0 hPa NW 3.2 km/h 3.2 km/h 41 % 0.0 mm
20:21 8.0 °C -4.5 °C 1028.0 hPa NNE 3.7 km/h 3.7 km/h 41 % 0.0 mm
20:25 4.2 °C -4.3 °C 1029.0 hPa Calm   1.6 km/h 54 % 0.0 mm
20:26 8.0 °C -4.5 °C 1028.0 hPa WNW 1.9 km/h 1.9 km/h 41 % 0.0 mm
20:31 8.1 °C -4.4 °C 1028.0 hPa WNW 1.9 km/h 2.3 km/h 41 % 0.0 mm
20:35 4.3 °C -4.2 °C 1030.0 hPa Calm   1.6 km/h 54 % 0.0 mm
20:36 8.3 °C -3.9 °C 1028.0 hPa NW 2.3 km/h 2.3 km/h 42 % 0.0 mm
20:41 8.5 °C -3.7 °C 1028.0 hPa North 1.9 km/h   42 % 0.0 mm
20:45 4.4 °C -4.1 °C 1030.0 hPa WNW 1.6 km/h 1.6 km/h 54 % 0.0 mm
20:46 8.2 °C -3.9 °C 1028.0 hPa WNW 1.9 km/h 1.9 km/h 42 % 0.0 mm
20:51 7.9 °C -4.2 °C 1028.0 hPa NNE 3.7 km/h 3.7 km/h 42 % 0.0 mm
20:55 4.4 °C -4.1 °C 1029.0 hPa NNW 1.6 km/h 3.2 km/h 54 % 0.0 mm
20:56 7.8 °C -4.3 °C 1028.0 hPa ENE 3.7 km/h 3.7 km/h 42 % 0.0 mm
21:01 7.7 °C -4.4 °C 1029.0 hPa NNE 5.6 km/h 5.6 km/h 42 % 0.0 mm
21:05 4.2 °C -4.3 °C 1029.0 hPa Calm   1.6 km/h 54 % 0.0 mm
21:13 7.2 °C -4.6 °C 1029.0 hPa East 3.7 km/h 3.7 km/h 43 % 0.0 mm
21:15 4.2 °C -4.3 °C 1029.0 hPa North 1.6 km/h 3.2 km/h 54 % 0.0 mm
21:18 6.7 °C -5.0 °C 1029.0 hPa NE 3.7 km/h 3.9 km/h 43 % 0.0 mm
21:23 6.5 °C -5.2 °C 1029.0 hPa NE 3.7 km/h 3.7 km/h 43 % 0.0 mm
21:25 4.7 °C -3.8 °C 1029.0 hPa NE 3.2 km/h 4.8 km/h 54 % 0.0 mm
21:28 6.3 °C -5.1 °C 1029.0 hPa NNE 1.9 km/h 1.9 km/h 44 % 0.0 mm
21:33 6.2 °C -5.2 °C 1029.0 hPa WNW 3.7 km/h   44 % 0.0 mm
21:35 4.7 °C -3.8 °C 1029.0 hPa NE 3.2 km/h 4.8 km/h 54 % 0.0 mm
21:38 6.2 °C -5.2 °C 1029.0 hPa NNE 3.7 km/h 3.7 km/h 44 % 0.0 mm
21:43 6.2 °C -5.2 °C 1029.0 hPa NNE 1.4 km/h   44 % 0.0 mm
21:45 4.5 °C -4.0 °C 1029.0 hPa NE 4.8 km/h 6.4 km/h 54 % 0.0 mm
21:48 6.2 °C -4.9 °C 1029.0 hPa North 3.7 km/h 3.7 km/h 45 % 0.0 mm
21:53 6.2 °C -5.2 °C 1029.0 hPa NW 3.7 km/h 3.7 km/h 44 % 0.0 mm
21:55 4.6 °C -3.7 °C 1029.0 hPa NE 3.2 km/h 6.4 km/h 55 % 0.0 mm
21:58 6.2 °C -4.9 °C 1029.0 hPa WSW 1.9 km/h   45 % 0.0 mm
22:03 6.0 °C -5.1 °C 1029.0 hPa Calm     45 % 0.0 mm
22:05 4.5 °C -3.8 °C 1029.0 hPa NNE 1.6 km/h 6.4 km/h 55 % 0.0 mm
22:08 5.8 °C -4.9 °C 1029.0 hPa SSE 3.7 km/h 3.7 km/h 46 % 0.0 mm
22:13 5.7 °C -5.1 °C 1029.0 hPa ENE 1.9 km/h   46 % 0.0 mm
22:15 4.5 °C -3.8 °C 1029.0 hPa NNE 3.2 km/h 3.2 km/h 55 % 0.0 mm
22:18 5.2 °C -5.5 °C 1030.0 hPa NNE 3.7 km/h 3.7 km/h 46 % 0.0 mm
22:23 5.1 °C -5.6 °C 1030.0 hPa SW 4.2 km/h 4.2 km/h 46 % 0.0 mm
22:25 4.4 °C -3.9 °C 1029.0 hPa Calm   3.2 km/h 55 % 0.0 mm
22:28 4.8 °C -5.9 °C 1030.0 hPa WSW 3.7 km/h 3.7 km/h 46 % 0.0 mm
22:33 4.8 °C -5.9 °C 1030.0 hPa West 3.9 km/h 3.9 km/h 46 % 0.0 mm
22:35 4.3 °C -3.9 °C 1029.0 hPa NNE 1.6 km/h 3.2 km/h 55 % 0.0 mm
22:38 4.8 °C -5.6 °C 1030.0 hPa SSW 1.9 km/h 1.9 km/h 47 % 0.0 mm
22:43 5.0 °C -5.4 °C 1030.0 hPa WNW 3.7 km/h 3.7 km/h 47 % 0.0 mm
22:45 4.5 °C -3.8 °C 1029.0 hPa North 3.2 km/h 4.8 km/h 55 % 0.0 mm
22:48 5.0 °C -5.4 °C 1030.0 hPa Calm     47 % 0.0 mm
22:53 5.1 °C -5.3 °C 1030.0 hPa WSW 3.7 km/h 3.7 km/h 47 % 0.0 mm
22:55 4.5 °C -3.8 °C 1029.0 hPa NNE 3.2 km/h 6.4 km/h 55 % 0.0 mm
22:58 5.1 °C -5.0 °C 1030.0 hPa NNE 1.9 km/h   48 % 0.0 mm
23:03 5.2 °C -4.9 °C 1030.0 hPa NNE 3.7 km/h 3.7 km/h 48 % 0.0 mm
23:05 4.2 °C -4.1 °C 1029.0 hPa NE 4.8 km/h 4.8 km/h 55 % 0.0 mm
23:08 5.5 °C -4.7 °C 1030.0 hPa SW 3.9 km/h 3.9 km/h 48 % 0.0 mm
23:13 4.9 °C -5.2 °C 1030.0 hPa ENE 2.6 km/h   48 % 0.0 mm
23:15 3.8 °C -4.4 °C 1029.0 hPa NNE 1.6 km/h 4.8 km/h 55 % 0.0 mm
23:18 4.8 °C -5.1 °C 1030.0 hPa ENE 1.9 km/h   49 % 0.0 mm
23:20 4.8 °C -5.1 °C 1030.0 hPa Calm     49 % 0.0 mm
23:25 4.8 °C -5.1 °C 1030.0 hPa Calm     49 % 0.0 mm
23:30 4.8 °C -4.8 °C 1030.0 hPa Calm     50 % 0.0 mm
23:35 4.8 °C -4.8 °C 1030.0 hPa Calm     50 % 0.0 mm
23:40 5.0 °C -4.6 °C 1030.0 hPa WNW 1.9 km/h 1.9 km/h 50 % 0.0 mm
23:45 4.9 °C -4.7 °C 1030.0 hPa East 2.3 km/h 2.3 km/h 50 % 0.0 mm
23:50 4.8 °C -4.8 °C 1030.0 hPa Calm     50 % 0.0 mm
23:55 4.5 °C -5.1 °C 1030.0 hPa Calm     50 % 0.0 mm
Meteo Sesrovires
Elogis d' Weather Underground - 3.5 mb

Guio original per  Jim McMurry - jmcmurry@mwt.net Adaptat per a la plantilla per  Wim van der Kuil - Leuven-Template.eu

Trobareu la nostra informacio del temps tambe a:

Weather Underground

AWEKAS